Symphony Classica — JG4838 — position and weather

sailwx.info

Track history (hours):
 
Tides and Currents Weather Stations Pressure Air Temp Water Temp Dewpoint Dewpoint Depression Visibility Wind Speed Wind Dir Waves Ship Positions

Symphony Classica

Last reported at 2017-Dec-10 04:51 UTC. Time now 2017-Dec-12 04:14 UTC.
Position N 35°39' E 139°46'.

Length 70 m; draft 2.5 m.

Type: Passenger vessel. MMSI: 431000425.

Date/timePositionNaut miles runAvg speedWind from/ knotsBaromVisibWave heightAir tempDewpointWater temp
2017-Dec-10 04:51N 35°39' E 139°46'2 6.8
2017-Dec-10 04:30N 35°37' E 139°46'4 8.5
2017-Dec-10 04:00N 35°34' E 139°50'3 6.6
2017-Dec-10 03:30N 35°37' E 139°49'3 6.4
2017-Dec-10 03:00N 35°39' E 139°46'1 0.1
2017-Dec-09 18:26N 35°39' E 139°46'0 0.0
2017-Dec-09 17:08N 35°39' E 139°46'0 0.0
2017-Dec-09 16:50N 35°39' E 139°46'0 0.0
2017-Dec-09 16:26N 35°39' E 139°46'0 0.0
2017-Dec-09 15:44N 35°39' E 139°46'0 0.0
2017-Dec-09 12:25N 35°39' E 139°46'1 2.7
2017-Dec-09 12:00N 35°38' E 139°46'4 8.6
2017-Dec-09 11:30N 35°34' E 139°49'2 3.7
2017-Dec-09 10:58N 35°36' E 139°50'3 5.8
2017-Dec-09 10:31N 35°36' E 139°47'3 6.6
2017-Dec-09 09:59N 35°39' E 139°46'0 0.0
2017-Dec-09 09:12N 35°39' E 139°46'1 4.6
2017-Dec-09 09:00N 35°38' E 139°46'5 9.2
2017-Dec-09 08:30N 35°34' E 139°49'2 4.9
2017-Dec-09 08:00N 35°37' E 139°48'3 5.9
2017-Dec-09 07:31N 35°39' E 139°46'0 0.2
2017-Dec-09 07:00N 35°39' E 139°46'0 0.0
2017-Dec-09 06:25N 35°39' E 139°46'0 0.0
2017-Dec-09 05:56N 35°39' E 139°46'0 0.2
2017-Dec-09 04:46N 35°39' E 139°46'2 7.9
2017-Dec-09 04:31N 35°37' E 139°46'4 8.8
2017-Dec-09 04:00N 35°34' E 139°50'3 6.5
2017-Dec-09 03:29N 35°37' E 139°49'3 5.6
2017-Dec-09 03:01N 35°38' E 139°46'1 0.1
2017-Dec-08 17:27N 35°39' E 139°46'0 0.0
2017-Dec-08 16:51N 35°39' E 139°46'0 0.0
2017-Dec-08 16:27N 35°39' E 139°46'0 0.0
2017-Dec-08 15:03N 35°39' E 139°46'0 0.0
2017-Dec-08 12:24N 35°39' E 139°46'2 5.1
2017-Dec-08 12:00N 35°37' E 139°46'3 7.1
2017-Dec-08 11:30N 35°34' E 139°49'3 5.9
2017-Dec-08 11:01N 35°36' E 139°52'4 7.6
2017-Dec-08 10:30N 35°36' E 139°47'3 0.2
2017-Dec-07 17:49N 35°39' E 139°46'0 0.0
2017-Dec-07 17:25N 35°39' E 139°46'0 0.0
2017-Dec-07 16:55N 35°39' E 139°46'0 0.0
2017-Dec-07 16:19N 35°39' E 139°46'0 0.0
2017-Dec-07 15:55N 35°39' E 139°46'0 0.0
2017-Dec-07 15:07N 35°39' E 139°46'0 0.0
2017-Dec-07 12:24N 35°39' E 139°46'2 3.8
2017-Dec-07 12:00N 35°38' E 139°46'5 9.2
2017-Dec-07 11:31N 35°34' E 139°49'3 5.5
2017-Dec-07 11:00N 35°35' E 139°52'4 8.0
2017-Dec-07 10:29N 35°36' E 139°47'3 0.3
2017-Dec-06 23:48N 35°39' E 139°46'  
2017-Dec-04 10:30N 35°36' E 139°47'3 0.3
2017-Dec-03 23:36N 35°39' E 139°46'0 0.0
2017-Dec-03 17:24N 35°39' E 139°46'0 0.0
2017-Dec-03 16:03N 35°39' E 139°46'0 0.0
2017-Dec-03 15:45N 35°39' E 139°46'0 0.0
2017-Dec-03 15:18N 35°39' E 139°46'0 0.0
2017-Dec-03 14:09N 35°39' E 139°46'0 0.0
2017-Dec-03 13:57N 35°39' E 139°46'0 0.0
2017-Dec-03 12:57N 35°39' E 139°46'0 0.0
2017-Dec-03 12:21N 35°39' E 139°46'0 0.0
2017-Dec-03 04:54N 35°39' E 139°46'2 5.5
2017-Dec-03 04:30N 35°37' E 139°46'4 8.7
2017-Dec-03 04:00N 35°34' E 139°50'3 5.4
2017-Dec-03 03:26N 35°36' E 139°48'3 7.0
2017-Dec-03 03:00N 35°39' E 139°46'0 0.1
2017-Dec-03 00:59N 35°39' E 139°46'0 0.0
2017-Dec-03 00:11N 35°39' E 139°46'0 0.0
2017-Dec-02 23:59N 35°39' E 139°46'0 0.0
2017-Dec-02 23:29N 35°39' E 139°46'0 0.0
2017-Dec-02 22:56N 35°39' E 139°46'0 0.0
2017-Dec-02 22:29N 35°39' E 139°46'0 0.0
2017-Dec-02 21:59N 35°39' E 139°46'0 0.0
2017-Dec-02 21:29N 35°39' E 139°46'0 0.0
2017-Dec-02 20:59N 35°39' E 139°46'0 0.0
2017-Dec-02 20:29N 35°39' E 139°46'0 0.0
2017-Dec-02 19:59N 35°39' E 139°46'0 0.0
2017-Dec-02 19:26N 35°39' E 139°46'0 0.0
2017-Dec-02 18:59N 35°39' E 139°46'0 0.0
2017-Dec-02 18:29N 35°39' E 139°46'0 0.0
2017-Dec-02 17:59N 35°39' E 139°46'0 0.0
2017-Dec-02 17:29N 35°39' E 139°46'0 0.0
2017-Dec-02 16:59N 35°39' E 139°46'0 0.0
2017-Dec-02 16:26N 35°39' E 139°46'0 0.0
2017-Dec-02 15:59N 35°39' E 139°46'0 0.0
2017-Dec-02 15:29N 35°39' E 139°46'0 0.0
2017-Dec-02 14:59N 35°39' E 139°46'0 0.0
2017-Dec-02 14:29N 35°39' E 139°46'0 0.0
2017-Dec-02 13:59N 35°39' E 139°46'0 0.0
2017-Dec-02 13:29N 35°39' E 139°46'0 0.0
2017-Dec-02 12:59N 35°39' E 139°46'0 0.0
2017-Dec-02 12:29N 35°39' E 139°46'1 2.2
2017-Dec-02 12:00N 35°38' E 139°46'4 7.8
2017-Dec-02 11:30N 35°35' E 139°48'2 3.9
2017-Dec-02 11:00N 35°35' E 139°51'3 6.9
2017-Dec-02 10:30N 35°36' E 139°47'3 6.0
2017-Dec-02 10:00N 35°39' E 139°46'0 0.0
2017-Dec-02 09:30N 35°39' E 139°46'1 1.8
2017-Dec-02 09:00N 35°38' E 139°46'4 8.4
2017-Dec-02 08:30N 35°34' E 139°48'3 5.2
2017-Dec-02 08:01N 35°37' E 139°49'3 5.8
2017-Dec-02 07:31N 35°39' E 139°46'0 0.3
2017-Dec-02 07:00N 35°39' E 139°46'1 1.1
2017-Dec-02 06:30N 35°39' E 139°46'1 1.1
2017-Dec-02 06:00N 35°39' E 139°46'0 0.0
2017-Dec-02 05:11N 35°39' E 139°46'0 0.0
2017-Dec-02 05:00N 35°39' E 139°46'2 4.1
2017-Dec-02 04:30N 35°37' E 139°46'4 8.8
2017-Dec-02 04:00N 35°34' E 139°50'3 6.4
2017-Dec-02 03:30N 35°37' E 139°49'3 6.0
2017-Dec-02 03:01N 35°39' E 139°46'0 0.3
2017-Dec-02 02:21N 35°39' E 139°46'0 0.0
2017-Dec-02 02:00N 35°39' E 139°46'0 0.0
2017-Dec-02 01:30N 35°39' E 139°46'0 0.0
2017-Dec-02 01:00N 35°39' E 139°46'0 0.0
2017-Dec-02 00:30N 35°39' E 139°46'0 0.0
2017-Dec-02 00:00N 35°39' E 139°46'0 0.0
2017-Dec-01 23:30N 35°39' E 139°46'0 0.0
2017-Dec-01 22:57N 35°39' E 139°46'0 0.0
2017-Dec-01 22:30N 35°39' E 139°46'0 0.0
2017-Dec-01 22:00N 35°39' E 139°46'0 0.0
2017-Dec-01 21:30N 35°39' E 139°46'0 0.0
2017-Dec-01 21:00N 35°39' E 139°46'0 0.0
2017-Dec-01 20:24N 35°39' E 139°46'0 0.0
2017-Dec-01 20:00N 35°39' E 139°46'0 0.0
2017-Dec-01 19:30N 35°39' E 139°46'0 0.0
2017-Dec-01 18:42N 35°39' E 139°46'0 0.0
2017-Dec-01 18:30N 35°39' E 139°46'0 0.0
2017-Dec-01 17:54N 35°39' E 139°46'0 0.0
2017-Dec-01 17:30N 35°39' E 139°46'0 0.0
2017-Dec-01 17:00N 35°39' E 139°46'0 0.0
2017-Dec-01 16:30N 35°39' E 139°46'0 0.0
2017-Dec-01 16:00N 35°39' E 139°46'0 0.0
2017-Dec-01 15:30N 35°39' E 139°46'0 0.0
2017-Dec-01 15:00N 35°39' E 139°46'0 0.0
2017-Dec-01 14:30N 35°39' E 139°46'0 0.0
2017-Dec-01 14:00N 35°39' E 139°46'0 0.0
2017-Dec-01 13:30N 35°39' E 139°46'0 0.0
2017-Dec-01 13:00N 35°39' E 139°46'0 0.0
2017-Dec-01 12:30N 35°39' E 139°46'1 2.9
2017-Dec-01 12:00N 35°38' E 139°46'4 8.6
2017-Dec-01 11:30N 35°34' E 139°49'2 4.3
2017-Dec-01 11:00N 35°35' E 139°51'3 6.9
2017-Dec-01 10:30N 35°36' E 139°47'3 6.4
2017-Dec-01 10:00N 35°39' E 139°46'0 0.0
2017-Dec-01 09:25N 35°39' E 139°46'0 0.0
2017-Dec-01 08:55N 35°39' E 139°46'0 0.0
2017-Dec-01 08:25N 35°39' E 139°46'0 0.0
2017-Dec-01 07:49N 35°39' E 139°46'0 0.0
2017-Dec-01 07:25N 35°39' E 139°46'0 0.0
2017-Dec-01 06:55N 35°39' E 139°46'0 0.0
2017-Dec-01 05:43N 35°39' E 139°46'0 0.0
2017-Dec-01 05:10N 35°39' E 139°46'0 0.0
2017-Dec-01 04:58N 35°39' E 139°46'0 0.0
2017-Dec-01 04:28N 35°39' E 139°46'0 0.0
2017-Dec-01 03:55N 35°39' E 139°46'0 0.0
2017-Dec-01 03:25N 35°39' E 139°46'0 0.0
2017-Dec-01 02:55N 35°39' E 139°46'0 0.0
2017-Dec-01 02:28N 35°39' E 139°46'0 0.0
2017-Dec-01 01:58N 35°39' E 139°46'0 0.0
2017-Dec-01 01:25N 35°39' E 139°46'0 0.0
2017-Dec-01 00:58N 35°39' E 139°46'0 0.0
2017-Dec-01 00:28N 35°39' E 139°46'0 0.0
2017-Nov-30 23:58N 35°39' E 139°46'0 0.0
2017-Nov-30 23:28N 35°39' E 139°46'0 0.0
2017-Nov-30 22:58N 35°39' E 139°46'0 0.0
2017-Nov-30 22:28N 35°39' E 139°46'0 0.0
2017-Nov-30 21:58N 35°39' E 139°46'0 0.0
2017-Nov-30 21:28N 35°39' E 139°46'0 0.0
2017-Nov-30 20:58N 35°39' E 139°46'0 0.0
2017-Nov-30 20:28N 35°39' E 139°46'0 0.0
2017-Nov-30 19:58N 35°39' E 139°46'0 0.0
2017-Nov-30 19:28N 35°39' E 139°46'0 0.0
2017-Nov-30 18:58N 35°39' E 139°46'0 0.0
2017-Nov-30 18:28N 35°39' E 139°46'0 0.0
2017-Nov-30 17:55N 35°39' E 139°46'0 0.0
2017-Nov-30 17:25N 35°39' E 139°46'0 0.0
2017-Nov-30 16:58N 35°39' E 139°46'0 0.0
2017-Nov-30 16:28N 35°39' E 139°46'0 0.0
2017-Nov-30 15:58N 35°39' E 139°46'0 0.0
2017-Nov-30 15:28N 35°39' E 139°46'0 0.0
2017-Nov-30 14:58N 35°39' E 139°46'0 0.0
2017-Nov-30 14:28N 35°39' E 139°46'0 0.0
2017-Nov-30 13:58N 35°39' E 139°46'0 0.0
2017-Nov-30 13:28N 35°39' E 139°46'0 0.0
2017-Nov-30 12:58N 35°39' E 139°46'0 0.0
2017-Nov-30 12:28N 35°39' E 139°46'0 0.0
2017-Nov-30 11:58N 35°39' E 139°46'0 0.0
2017-Nov-30 11:28N 35°39' E 139°46'0 0.0
2017-Nov-30 10:58N 35°39' E 139°46'0 0.0
2017-Nov-30 10:25N 35°39' E 139°46'0 0.0
2017-Nov-30 09:58N 35°39' E 139°46'0 0.0
2017-Nov-30 09:28N 35°39' E 139°46'0 0.0
2017-Nov-30 08:58N 35°39' E 139°46'0 0.0
2017-Nov-30 08:28N 35°39' E 139°46'0 0.0
2017-Nov-30 07:55N 35°39' E 139°46'0 0.0
2017-Nov-30 07:22N 35°39' E 139°46'0 0.0
2017-Nov-30 06:55N 35°39' E 139°46'0 0.0
2017-Nov-30 05:07N 35°39' E 139°46'0 0.0
2017-Nov-30 04:59N 35°39' E 139°46'  
Track history (hours):
 
Tides and Currents Weather Stations Pressure Air Temp Water Temp Dewpoint Dewpoint Depression Visibility Wind Speed Wind Dir Waves Ship Positions

Symphony Classica

Last reported at 2017-Dec-10 04:51 UTC. Time now 2017-Dec-12 04:14 UTC.
Position N 35°39' E 139°46'.

Length 70 m; draft 2.5 m.

Type: Passenger vessel. MMSI: 431000425.

Date/timePositionNaut miles runAvg speedWind from/ knotsBaromVisibWave heightAir tempDewpointWater temp
2017-Dec-10 04:51N 35°39' E 139°46'2 6.8
2017-Dec-10 04:30N 35°37' E 139°46'4 8.5
2017-Dec-10 04:00N 35°34' E 139°50'3 6.6
2017-Dec-10 03:30N 35°37' E 139°49'3 6.4
2017-Dec-10 03:00N 35°39' E 139°46'1 0.1
2017-Dec-09 18:26N 35°39' E 139°46'0 0.0
2017-Dec-09 17:08N 35°39' E 139°46'0 0.0
2017-Dec-09 16:50N 35°39' E 139°46'0 0.0
2017-Dec-09 16:26N 35°39' E 139°46'0 0.0
2017-Dec-09 15:44N 35°39' E 139°46'0 0.0
2017-Dec-09 12:25N 35°39' E 139°46'1 2.7
2017-Dec-09 12:00N 35°38' E 139°46'4 8.6
2017-Dec-09 11:30N 35°34' E 139°49'2 3.7
2017-Dec-09 10:58N 35°36' E 139°50'3 5.8
2017-Dec-09 10:31N 35°36' E 139°47'3 6.6
2017-Dec-09 09:59N 35°39' E 139°46'0 0.0
2017-Dec-09 09:12N 35°39' E 139°46'1 4.6
2017-Dec-09 09:00N 35°38' E 139°46'5 9.2
2017-Dec-09 08:30N 35°34' E 139°49'2 4.9
2017-Dec-09 08:00N 35°37' E 139°48'3 5.9
2017-Dec-09 07:31N 35°39' E 139°46'0 0.2
2017-Dec-09 07:00N 35°39' E 139°46'0 0.0
2017-Dec-09 06:25N 35°39' E 139°46'0 0.0
2017-Dec-09 05:56N 35°39' E 139°46'0 0.2
2017-Dec-09 04:46N 35°39' E 139°46'2 7.9
2017-Dec-09 04:31N 35°37' E 139°46'4 8.8
2017-Dec-09 04:00N 35°34' E 139°50'3 6.5
2017-Dec-09 03:29N 35°37' E 139°49'3 5.6
2017-Dec-09 03:01N 35°38' E 139°46'1 0.1
2017-Dec-08 17:27N 35°39' E 139°46'0 0.0
2017-Dec-08 16:51N 35°39' E 139°46'0 0.0
2017-Dec-08 16:27N 35°39' E 139°46'0 0.0
2017-Dec-08 15:03N 35°39' E 139°46'0 0.0
2017-Dec-08 12:24N 35°39' E 139°46'2 5.1
2017-Dec-08 12:00N 35°37' E 139°46'3 7.1
2017-Dec-08 11:30N 35°34' E 139°49'3 5.9
2017-Dec-08 11:01N 35°36' E 139°52'4 7.6
2017-Dec-08 10:30N 35°36' E 139°47'3 0.2
2017-Dec-07 17:49N 35°39' E 139°46'0 0.0
2017-Dec-07 17:25N 35°39' E 139°46'0 0.0
2017-Dec-07 16:55N 35°39' E 139°46'0 0.0
2017-Dec-07 16:19N 35°39' E 139°46'0 0.0
2017-Dec-07 15:55N 35°39' E 139°46'0 0.0
2017-Dec-07 15:07N 35°39' E 139°46'0 0.0
2017-Dec-07 12:24N 35°39' E 139°46'2 3.8
2017-Dec-07 12:00N 35°38' E 139°46'5 9.2
2017-Dec-07 11:31N 35°34' E 139°49'3 5.5
2017-Dec-07 11:00N 35°35' E 139°52'4 8.0
2017-Dec-07 10:29N 35°36' E 139°47'3 0.3
2017-Dec-06 23:48N 35°39' E 139°46'  
2017-Dec-04 10:30N 35°36' E 139°47'3 0.3
2017-Dec-03 23:36N 35°39' E 139°46'0 0.0
2017-Dec-03 17:24N 35°39' E 139°46'0 0.0
2017-Dec-03 16:03N 35°39' E 139°46'0 0.0
2017-Dec-03 15:45N 35°39' E 139°46'0 0.0
2017-Dec-03 15:18N 35°39' E 139°46'0 0.0
2017-Dec-03 14:09N 35°39' E 139°46'0 0.0
2017-Dec-03 13:57N 35°39' E 139°46'0 0.0
2017-Dec-03 12:57N 35°39' E 139°46'0 0.0
2017-Dec-03 12:21N 35°39' E 139°46'0 0.0
2017-Dec-03 04:54N 35°39' E 139°46'2 5.5
2017-Dec-03 04:30N 35°37' E 139°46'4 8.7
2017-Dec-03 04:00N 35°34' E 139°50'3 5.4
2017-Dec-03 03:26N 35°36' E 139°48'3 7.0
2017-Dec-03 03:00N 35°39' E 139°46'0 0.1
2017-Dec-03 00:59N 35°39' E 139°46'0 0.0
2017-Dec-03 00:11N 35°39' E 139°46'0 0.0
2017-Dec-02 23:59N 35°39' E 139°46'0 0.0
2017-Dec-02 23:29N 35°39' E 139°46'0 0.0
2017-Dec-02 22:56N 35°39' E 139°46'0 0.0
2017-Dec-02 22:29N 35°39' E 139°46'0 0.0
2017-Dec-02 21:59N 35°39' E 139°46'0 0.0
2017-Dec-02 21:29N 35°39' E 139°46'0 0.0
2017-Dec-02 20:59N 35°39' E 139°46'0 0.0
2017-Dec-02 20:29N 35°39' E 139°46'0 0.0
2017-Dec-02 19:59N 35°39' E 139°46'0 0.0
2017-Dec-02 19:26N 35°39' E 139°46'0 0.0
2017-Dec-02 18:59N 35°39' E 139°46'0 0.0
2017-Dec-02 18:29N 35°39' E 139°46'0 0.0
2017-Dec-02 17:59N 35°39' E 139°46'0 0.0
2017-Dec-02 17:29N 35°39' E 139°46'0 0.0
2017-Dec-02 16:59N 35°39' E 139°46'0 0.0
2017-Dec-02 16:26N 35°39' E 139°46'0 0.0
2017-Dec-02 15:59N 35°39' E 139°46'0 0.0
2017-Dec-02 15:29N 35°39' E 139°46'0 0.0
2017-Dec-02 14:59N 35°39' E 139°46'0 0.0
2017-Dec-02 14:29N 35°39' E 139°46'0 0.0
2017-Dec-02 13:59N 35°39' E 139°46'0 0.0
2017-Dec-02 13:29N 35°39' E 139°46'0 0.0
2017-Dec-02 12:59N 35°39' E 139°46'0 0.0
2017-Dec-02 12:29N 35°39' E 139°46'1 2.2
2017-Dec-02 12:00N 35°38' E 139°46'4 7.8
2017-Dec-02 11:30N 35°35' E 139°48'2 3.9
2017-Dec-02 11:00N 35°35' E 139°51'3 6.9
2017-Dec-02 10:30N 35°36' E 139°47'3 6.0
2017-Dec-02 10:00N 35°39' E 139°46'0 0.0
2017-Dec-02 09:30N 35°39' E 139°46'1 1.8
2017-Dec-02 09:00N 35°38' E 139°46'4 8.4
2017-Dec-02 08:30N 35°34' E 139°48'3 5.2
2017-Dec-02 08:01N 35°37' E 139°49'3 5.8
2017-Dec-02 07:31N 35°39' E 139°46'0 0.3
2017-Dec-02 07:00N 35°39' E 139°46'1 1.1
2017-Dec-02 06:30N 35°39' E 139°46'1 1.1
2017-Dec-02 06:00N 35°39' E 139°46'0 0.0
2017-Dec-02 05:11N 35°39' E 139°46'0 0.0
2017-Dec-02 05:00N 35°39' E 139°46'2 4.1
2017-Dec-02 04:30N 35°37' E 139°46'4 8.8
2017-Dec-02 04:00N 35°34' E 139°50'3 6.4
2017-Dec-02 03:30N 35°37' E 139°49'3 6.0
2017-Dec-02 03:01N 35°39' E 139°46'0 0.3
2017-Dec-02 02:21N 35°39' E 139°46'0 0.0
2017-Dec-02 02:00N 35°39' E 139°46'0 0.0
2017-Dec-02 01:30N 35°39' E 139°46'0 0.0
2017-Dec-02 01:00N 35°39' E 139°46'0 0.0
2017-Dec-02 00:30N 35°39' E 139°46'0 0.0
2017-Dec-02 00:00N 35°39' E 139°46'0 0.0
2017-Dec-01 23:30N 35°39' E 139°46'0 0.0
2017-Dec-01 22:57N 35°39' E 139°46'0 0.0
2017-Dec-01 22:30N 35°39' E 139°46'0 0.0
2017-Dec-01 22:00N 35°39' E 139°46'0 0.0
2017-Dec-01 21:30N 35°39' E 139°46'0 0.0
2017-Dec-01 21:00N 35°39' E 139°46'0 0.0
2017-Dec-01 20:24N 35°39' E 139°46'0 0.0
2017-Dec-01 20:00N 35°39' E 139°46'0 0.0
2017-Dec-01 19:30N 35°39' E 139°46'0 0.0
2017-Dec-01 18:42N 35°39' E 139°46'0 0.0
2017-Dec-01 18:30N 35°39' E 139°46'0 0.0
2017-Dec-01 17:54N 35°39' E 139°46'0 0.0
2017-Dec-01 17:30N 35°39' E 139°46'0 0.0
2017-Dec-01 17:00N 35°39' E 139°46'0 0.0
2017-Dec-01 16:30N 35°39' E 139°46'0 0.0
2017-Dec-01 16:00N 35°39' E 139°46'0 0.0
2017-Dec-01 15:30N 35°39' E 139°46'0 0.0
2017-Dec-01 15:00N 35°39' E 139°46'0 0.0
2017-Dec-01 14:30N 35°39' E 139°46'0 0.0
2017-Dec-01 14:00N 35°39' E 139°46'0 0.0
2017-Dec-01 13:30N 35°39' E 139°46'0 0.0
2017-Dec-01 13:00N 35°39' E 139°46'0 0.0
2017-Dec-01 12:30N 35°39' E 139°46'1 2.9
2017-Dec-01 12:00N 35°38' E 139°46'4 8.6
2017-Dec-01 11:30N 35°34' E 139°49'2 4.3
2017-Dec-01 11:00N 35°35' E 139°51'3 6.9
2017-Dec-01 10:30N 35°36' E 139°47'3 6.4
2017-Dec-01 10:00N 35°39' E 139°46'0 0.0
2017-Dec-01 09:25N 35°39' E 139°46'0 0.0
2017-Dec-01 08:55N 35°39' E 139°46'0 0.0
2017-Dec-01 08:25N 35°39' E 139°46'0 0.0
2017-Dec-01 07:49N 35°39' E 139°46'0 0.0
2017-Dec-01 07:25N 35°39' E 139°46'0 0.0
2017-Dec-01 06:55N 35°39' E 139°46'0 0.0
2017-Dec-01 05:43N 35°39' E 139°46'0 0.0
2017-Dec-01 05:10N 35°39' E 139°46'0 0.0
2017-Dec-01 04:58N 35°39' E 139°46'0 0.0
2017-Dec-01 04:28N 35°39' E 139°46'0 0.0
2017-Dec-01 03:55N 35°39' E 139°46'0 0.0
2017-Dec-01 03:25N 35°39' E 139°46'0 0.0
2017-Dec-01 02:55N 35°39' E 139°46'0 0.0
2017-Dec-01 02:28N 35°39' E 139°46'0 0.0
2017-Dec-01 01:58N 35°39' E 139°46'0 0.0
2017-Dec-01 01:25N 35°39' E 139°46'0 0.0
2017-Dec-01 00:58N 35°39' E 139°46'0 0.0
2017-Dec-01 00:28N 35°39' E 139°46'0 0.0
2017-Nov-30 23:58N 35°39' E 139°46'0 0.0
2017-Nov-30 23:28N 35°39' E 139°46'0 0.0
2017-Nov-30 22:58N 35°39' E 139°46'0 0.0
2017-Nov-30 22:28N 35°39' E 139°46'0 0.0
2017-Nov-30 21:58N 35°39' E 139°46'0 0.0
2017-Nov-30 21:28N 35°39' E 139°46'0 0.0
2017-Nov-30 20:58N 35°39' E 139°46'0 0.0
2017-Nov-30 20:28N 35°39' E 139°46'0 0.0
2017-Nov-30 19:58N 35°39' E 139°46'0 0.0
2017-Nov-30 19:28N 35°39' E 139°46'0 0.0
2017-Nov-30 18:58N 35°39' E 139°46'0 0.0
2017-Nov-30 18:28N 35°39' E 139°46'0 0.0
2017-Nov-30 17:55N 35°39' E 139°46'0 0.0
2017-Nov-30 17:25N 35°39' E 139°46'0 0.0
2017-Nov-30 16:58N 35°39' E 139°46'0 0.0
2017-Nov-30 16:28N 35°39' E 139°46'0 0.0
2017-Nov-30 15:58N 35°39' E 139°46'0 0.0
2017-Nov-30 15:28N 35°39' E 139°46'0 0.0
2017-Nov-30 14:58N 35°39' E 139°46'0 0.0
2017-Nov-30 14:28N 35°39' E 139°46'0 0.0
2017-Nov-30 13:58N 35°39' E 139°46'0 0.0
2017-Nov-30 13:28N 35°39' E 139°46'0 0.0
2017-Nov-30 12:58N 35°39' E 139°46'0 0.0
2017-Nov-30 12:28N 35°39' E 139°46'0 0.0
2017-Nov-30 11:58N 35°39' E 139°46'0 0.0
2017-Nov-30 11:28N 35°39' E 139°46'0 0.0
2017-Nov-30 10:58N 35°39' E 139°46'0 0.0
2017-Nov-30 10:25N 35°39' E 139°46'0 0.0
2017-Nov-30 09:58N 35°39' E 139°46'0 0.0
2017-Nov-30 09:28N 35°39' E 139°46'0 0.0
2017-Nov-30 08:58N 35°39' E 139°46'0 0.0
2017-Nov-30 08:28N 35°39' E 139°46'0 0.0
2017-Nov-30 07:55N 35°39' E 139°46'0 0.0
2017-Nov-30 07:22N 35°39' E 139°46'0 0.0
2017-Nov-30 06:55N 35°39' E 139°46'0 0.0
2017-Nov-30 05:07N 35°39' E 139°46'0 0.0
2017-Nov-30 04:59N 35°39' E 139°46'  

Dump ship's entire track history